Time;durP1;ratioP1;P1;durP2;ratioP2;P2;SDS_P1;SDS_P2;PMS_P1;PMS_P2;Temp;Humidity;BMP_temperature;BMP_pressure;BME280_temperature;BME280_humidity;BME280_pressure;Samples;Min_cycle;Max_cycle;Signal;HPM_P1;HPM_P2
2022/05/26 00:00:07;;;;;;;;;;;;;;;;;;5114627;28;20333;-81
2022/05/26 00:02:33;;;;;;;;;;;;;;;;;;5099549;28;19916;-82
2022/05/26 00:04:58;;;;;;;;;;;;;;;;;;5118451;28;20060;-81
2022/05/26 00:07:23;;;;;;;;;;;;;;;;;;5118426;28;19912;-82
2022/05/26 00:09:49;;;;;;;;;;;;;;;;;;5118430;28;19915;-81
2022/05/26 00:12:16;;;;;;;;;;;;;;;;;;5116926;28;19923;-82
2022/05/26 00:14:42;;;;;;;;;;;;;;;;;;5118264;28;19912;-81
2022/05/26 00:17:08;;;;;;;;;;;;;;;;;;5116853;28;20424;-81
2022/05/26 00:19:33;;;;;;;;;;;;;;;;;;5118019;28;19966;-81
2022/05/26 00:21:58;;;;;;;;;;;;;;;;;;5116887;28;19954;-81
2022/05/26 00:24:24;;;;;;;;;;;;;;;;;;5100179;28;20394;-82
2022/05/26 00:26:49;;;;;;;;;;;;;;;;;;5118067;28;20249;-82
2022/05/26 00:29:14;;;;;;;;;;;;;;;;;;5118154;28;19941;-80
2022/05/26 00:31:40;;;;;;;;;;;;;;;;;;5117981;28;19955;-82
2022/05/26 00:34:05;;;;;;;;;;;;;;;;;;5117782;28;19919;-82
2022/05/26 00:36:42;;;;;;;;;;;;;;;;;;5117937;28;20001;-80
2022/05/26 00:39:08;;;;;;;;;;;;;;;;;;5117794;28;19943;-80
2022/05/26 00:41:34;;;;;;;;;;;;;;;;;;5118051;28;19916;-81
2022/05/26 00:43:59;;;;;;;;;;;;;;;;;;5117820;28;20325;-82
2022/05/26 00:46:44;;;;;;;;;;;;;;;;;;5118141;28;19920;-81
2022/05/26 00:49:12;;;;;;;;;;;;;;;;;;5117244;28;20264;-82
2022/05/26 00:51:37;;;;;;;;;;;;;;;;;;5116390;28;19961;-81
2022/05/26 00:54:13;;;;;;;;;;;;;;;;;;5116002;28;20364;-82
2022/05/26 00:56:41;;;;;;;;;;;;;;;;;;5116111;28;19912;-81
2022/05/26 00:59:08;;;;;;;;;;;;;;;;;;5116236;28;20008;-80
2022/05/26 01:01:33;;;;;;;;;;;;;;;;;;5117017;28;19922;-82
2022/05/26 01:04:00;;;;;;;;;;;;;;;;;;5116730;28;19916;-81
2022/05/26 01:06:28;;;;;;;;;;;;;;;;;;5117309;28;19920;-81
2022/05/26 01:08:54;;;;;;;;;;;;;;;;;;5116120;28;20277;-83
2022/05/26 01:11:19;;;;;;;;;;;;;;;;;;5098886;28;20337;-82
2022/05/26 01:13:47;;;;;;;;;;;;;;;;;;5116743;28;19916;-82
2022/05/26 01:16:20;;;;;;;;;;;;;;;;;;5116026;28;19923;-82
2022/05/26 01:18:55;;;;;;;;;;;;;;;;;;5098456;28;19963;-81
2022/05/26 01:21:50;;;;;;;;;;;;;;;;;;5115541;28;20317;-82
2022/05/26 01:24:15;;;;;;;;;;;;;;;;;;5114651;28;19923;-81
2022/05/26 01:26:58;;;;;;;;;;;;;;;;;;5115629;28;19965;-82
2022/05/26 01:29:42;;;;;;;;;;;;;;;;;;5115415;28;19973;-81
2022/05/26 01:32:12;;;;;;;;;;;;;;;;;;5116580;27;20277;-82
2022/05/26 01:34:52;;;;;;;;;;;;;;;;;;5115590;28;19916;-83
2022/05/26 01:37:31;;;;;;;;;;;;;;;;;;5116860;28;19923;-82
2022/05/26 01:39:57;;;;;;;;;;;;;;;;;;5116743;28;19964;-82
2022/05/26 01:42:27;;;;;;;;;;;;;;;;;;5115398;28;20307;-81
2022/05/26 01:45:11;;;;;;;;;;;;;;;;;;5115206;28;20383;-81
2022/05/26 01:47:36;;;;;;;;;;;;;;;;;;5116864;28;19919;-81
2022/05/26 01:50:14;;;;;;;;;;;;;;;;;;5116487;28;20558;-81
2022/05/26 01:52:40;;;;;;;;;;;;;;;;;;5115241;28;19916;-81
2022/05/26 01:55:10;;;;;;;;;;;;;;;;;;5097933;28;19920;-81
2022/05/26 01:57:38;;;;;;;;;;;;;;;;;;5098102;28;19920;-80
2022/05/26 02:00:05;;;;;;;;;;;;;;;;;;5115185;28;19926;-80
2022/05/26 02:02:35;;;;;;;;;;;;;;;;;;5114548;28;19938;-81
2022/05/26 02:05:02;;;;;;;;;;;;;;;;;;5114715;28;19916;-81
2022/05/26 02:07:34;;;;;;;;;;;;;;;;;;5114989;28;19915;-82
2022/05/26 02:10:00;;;;;;;;;;;;;;;;;;5114723;28;19945;-81
2022/05/26 02:12:30;;;;;;;;;;;;;;;;;;5114684;28;19920;-81
2022/05/26 02:15:07;;;;;;;;;;;;;;;;;;5114648;28;20057;-81
2022/05/26 02:17:33;;;;;;;;;;;;;;;;;;5115763;28;19966;-83
2022/05/26 02:20:08;;;;;;;;;;;;;;;;;;5114505;28;19916;-81
2022/05/26 02:22:33;;;;;;;;;;;;;;;;;;5115785;28;19923;-81
2022/05/26 02:25:16;;;;;;;;;;;;;;;;;;5115298;28;19916;-81
2022/05/26 02:27:41;;;;;;;;;;;;;;;;;;5097963;28;19935;-82
2022/05/26 02:30:07;;;;;;;;;;;;;;;;;;5115548;28;20333;-81
2022/05/26 02:32:43;;;;;;;;;;;;;;;;;;5114686;28;19911;-81
2022/05/26 02:35:20;;;;;;;;;;;;;;;;;;5115814;28;19916;-82
2022/05/26 02:37:45;;;;;;;;;;;;;;;;;;5114390;28;19916;-81
2022/05/26 02:40:11;;;;;;;;;;;;;;;;;;5115400;28;19915;-81
2022/05/26 02:42:38;;;;;;;;;;;;;;;;;;5115416;28;19916;-81
2022/05/26 02:45:04;;;;;;;;;;;;;;;;;;5114188;28;19915;-81
2022/05/26 02:47:41;;;;;;;;;;;;;;;;;;5113880;28;19934;-81
2022/05/26 02:50:06;;;;;;;;;;;;;;;;;;5115285;28;19915;-81
2022/05/26 02:52:32;;;;;;;;;;;;;;;;;;5115646;28;19931;-81
2022/05/26 02:54:57;;;;;;;;;;;;;;;;;;5115464;28;19923;-81
2022/05/26 02:57:44;;;;;;;;;;;;;;;;;;5115311;28;19951;-82
2022/05/26 03:00:28;;;;;;;;;;;;;;;;;;5115681;28;20194;-81
2022/05/26 03:03:05;;;;;;;;;;;;;;;;;;5126551;28;19916;-81
2022/05/26 03:05:30;;;;;;;;;;;;;;;;;;5109520;28;19923;-80
2022/05/26 03:07:56;;;;;;;;;;;;;;;;;;5127698;28;20330;-80
2022/05/26 03:10:23;;;;;;;;;;;;;;;;;;5127123;28;19916;-80
2022/05/26 03:12:48;;;;;;;;;;;;;;;;;;5128277;28;19916;-81
2022/05/26 03:15:13;;;;;;;;;;;;;;;;;;5129155;28;19942;-81
2022/05/26 03:17:39;;;;;;;;;;;;;;;;;;5116089;28;19916;-82
2022/05/26 03:20:04;;;;;;;;;;;;;;;;;;5120647;28;19915;-81
2022/05/26 03:22:29;;;;;;;;;;;;;;;;;;5113824;28;20446;-81
2022/05/26 03:24:55;;;;;;;;;;;;;;;;;;5114026;28;19915;-81
2022/05/26 03:27:20;;;;;;;;;;;;;;;;;;5114906;28;19919;-81
2022/05/26 03:29:45;;;;;;;;;;;;;;;;;;5113551;28;19923;-82
2022/05/26 03:32:11;;;;;;;;;;;;;;;;;;5115224;28;19916;-81
2022/05/26 03:43:05;;;;;;;;;;;;;;;;;;5115755;28;20256;-79
2022/05/26 03:45:33;;;;;;;;;;;;;;;;;;5118591;28;20006;-80
2022/05/26 03:47:58;;;;;;;;;;;;;;;;;;5100669;28;20276;-82
2022/05/26 03:50:23;;;;;;;;;;;;;;;;;;5118989;28;19937;-82
2022/05/26 03:52:51;;;;;;;;;;;;;;;;;;5118984;28;19957;-81
2022/05/26 03:55:16;;;;;;;;;;;;;;;;;;5118465;28;19951;-81
2022/05/26 03:57:41;;;;;;;;;;;;;;;;;;5117027;28;19916;-81
2022/05/26 04:00:07;;;;;;;;;;;;;;;;;;5118366;28;19923;-81
2022/05/26 04:02:34;;;;;;;;;;;;;;;;;;5100257;28;19923;-81
2022/05/26 04:05:00;;;;;;;;;;;;;;;;;;5118646;28;20326;-80
2022/05/26 04:07:26;;;;;;;;;;;;;;;;;;5119549;28;19916;-81
2022/05/26 04:09:51;;;;;;;;;;;;;;;;;;5117299;28;19972;-81
2022/05/26 04:12:18;;;;;;;;;;;;;;;;;;5117940;28;20306;-78
2022/05/26 04:14:43;;;;;;;;;;;;;;;;;;5118654;27;19915;-77
2022/05/26 04:17:08;;;;;;;;;;;;;;;;;;5117039;28;20428;-78
2022/05/26 04:19:35;;;;;;;;;;;;;;;;;;5118246;28;20288;-78
2022/05/26 04:22:16;;;;;;;;;;;;;;;;;;5118183;28;19922;-78
2022/05/26 04:24:41;;;;;;;;;;;;;;;;;;5117933;28;19981;-78
2022/05/26 04:27:07;;;;;;;;;;;;;;;;;;5116392;28;19916;-78
2022/05/26 04:29:32;;;;;;;;;;;;;;;;;;5117781;28;20242;-77
2022/05/26 04:31:58;;;;;;;;;;;;;;;;;;5117419;28;20261;-77
2022/05/26 04:34:23;;;;;;;;;;;;;;;;;;5117644;28;19916;-78
2022/05/26 04:36:49;;;;;;;;;;;;;;;;;;5118221;28;20002;-77
2022/05/26 04:39:14;;;;;;;;;;;;;;;;;;5117368;28;20237;-81
2022/05/26 04:41:41;;;;;;;;;;;;;;;;;;5114137;28;20007;-79
2022/05/26 04:44:10;;;;;;;;;;;;;;;;;;5114740;28;20249;-79
2022/05/26 04:46:38;;;;;;;;;;;;;;;;;;5112807;28;20274;-76
2022/05/26 04:49:03;;;;;;;;;;;;;;;;;;5117134;28;19916;-79
2022/05/26 04:51:29;;;;;;;;;;;;;;;;;;5116925;28;19989;-79
2022/05/26 04:53:56;;;;;;;;;;;;;;;;;;5108916;28;19923;-79
2022/05/26 04:56:22;;;;;;;;;;;;;;;;;;5111793;28;19920;-83
2022/05/26 04:58:48;;;;;;;;;;;;;;;;;;5114905;28;19923;-79
2022/05/26 05:01:14;;;;;;;;;;;;;;;;;;5112589;28;19920;-80
2022/05/26 05:03:39;;;;;;;;;;;;;;;;;;5109487;28;19920;-77
2022/05/26 05:06:29;;;;;;;;;;;;;;;;;;5103784;28;20268;-79
2022/05/26 05:08:58;;;;;;;;;;;;;;;;;;5112467;28;19920;-80
2022/05/26 05:11:26;;;;;;;;;;;;;;;;;;5108745;27;19920;-78
2022/05/26 05:13:51;;;;;;;;;;;;;;;;;;5110982;28;19933;-78
2022/05/26 05:16:19;;;;;;;;;;;;;;;;;;5105444;28;20002;-77
2022/05/26 05:18:45;;;;;;;;;;;;;;;;;;5109163;28;20030;-77
2022/05/26 05:21:12;;;;;;;;;;;;;;;;;;5109454;28;19916;-79
2022/05/26 05:23:39;;;;;;;;;;;;;;;;;;5106494;28;20184;-79
2022/05/26 05:26:06;;;;;;;;;;;;;;;;;;5107958;28;19941;-79
2022/05/26 05:28:32;;;;;;;;;;;;;;;;;;5092972;28;20414;-79
2022/05/26 05:30:58;;;;;;;;;;;;;;;;;;5112954;27;20296;-77
2022/05/26 05:33:25;;;;;;;;;;;;;;;;;;5108549;28;20736;-79
2022/05/26 05:35:52;;;;;;;;;;;;;;;;;;5114206;28;19947;-80
2022/05/26 05:38:18;;;;;;;;;;;;;;;;;;5100339;28;20303;-80
2022/05/26 05:40:43;;;;;;;;;;;;;;;;;;5108001;28;20278;-77
2022/05/26 05:43:12;;;;;;;;;;;;;;;;;;5109236;27;19916;-76
2022/05/26 05:45:39;;;;;;;;;;;;;;;;;;5111502;28;19928;-79
2022/05/26 05:48:07;;;;;;;;;;;;;;;;;;5118581;27;19924;-81
2022/05/26 05:50:33;;;;;;;;;;;;;;;;;;5115257;28;20003;-79
2022/05/26 05:53:00;;;;;;;;;;;;;;;;;;5114929;28;20480;-81
2022/05/26 05:55:26;;;;;;;;;;;;;;;;;;5112419;28;20798;-78
2022/05/26 05:57:52;;;;;;;;;;;;;;;;;;5112214;28;19924;-78
2022/05/26 06:00:17;;;;;;;;;;;;;;;;;;5108462;28;19923;-79
2022/05/26 06:02:57;;;;;;;;;;;;;;;;;;5112045;28;19926;-82
2022/05/26 06:05:28;;;;;;;;;;;;;;;;;;5104779;28;19928;-77
2022/05/26 06:07:53;;;;;;;;;;;;;;;;;;5111327;28;19919;-75
2022/05/26 06:10:19;;;;;;;;;;;;;;;;;;5112447;28;20002;-78
2022/05/26 06:12:45;;;;;;;;;;;;;;;;;;5112418;28;20167;-78
2022/05/26 06:15:11;;;;;;;;;;;;;;;;;;5107099;28;19919;-78
2022/05/26 06:17:36;;;;;;;;;;;;;;;;;;5093950;28;19939;-77
2022/05/26 06:20:02;;;;;;;;;;;;;;;;;;5112137;28;19923;-77
2022/05/26 06:22:29;;;;;;;;;;;;;;;;;;5114523;28;19920;-76
2022/05/26 06:24:54;;;;;;;;;;;;;;;;;;5115584;28;19926;-74
2022/05/26 06:30:08;;;;;;;;;;;;;;;;;;5115261;28;19923;-76
2022/05/26 06:38:10;;;;;;;;;;;;;;;;;;5104863;28;19973;-78
2022/05/26 06:40:36;;;;;;;;;;;;;;;;;;5108550;28;20280;-79
2022/05/26 06:43:01;;;;;;;;;;;;;;;;;;5092428;28;19916;-79
2022/05/26 06:45:26;;;;;;;;;;;;;;;;;;5092618;28;19922;-78
2022/05/26 06:47:52;;;;;;;;;;;;;;;;;;5108279;28;19994;-78
2022/05/26 06:50:17;;;;;;;;;;;;;;;;;;5108628;28;19931;-81
2022/05/26 06:52:43;;;;;;;;;;;;;;;;;;5110318;28;20329;-78
2022/05/26 06:55:08;;;;;;;;;;;;;;;;;;5112477;28;20322;-80
2022/05/26 06:57:34;;;;;;;;;;;;;;;;;;5111642;28;19998;-76
2022/05/26 07:00:00;;;;;;;;;;;;;;;;;;5112888;28;19915;-80
2022/05/26 07:02:38;;;;;;;;;;;;;;;;;;5113334;28;19967;-82
2022/05/26 07:05:04;;;;;;;;;;;;;;;;;;5112483;28;19915;-80
2022/05/26 07:07:29;;;;;;;;;;;;;;;;;;5112504;28;19912;-80
2022/05/26 07:09:55;;;;;;;;;;;;;;;;;;5112823;28;19939;-80
2022/05/26 07:12:21;;;;;;;;;;;;;;;;;;5117299;28;19912;-79
2022/05/26 07:14:46;;;;;;;;;;;;;;;;;;5115081;28;19968;-83
2022/05/26 07:17:12;;;;;;;;;;;;;;;;;;5116041;28;19913;-80
2022/05/26 07:19:37;;;;;;;;;;;;;;;;;;5116951;28;19916;-81
2022/05/26 07:22:06;;;;;;;;;;;;;;;;;;5119887;28;19923;-80
2022/05/26 07:24:31;;;;;;;;;;;;;;;;;;5120780;28;20264;-82
2022/05/26 07:26:56;;;;;;;;;;;;;;;;;;5119054;28;19987;-79
2022/05/26 07:29:22;;;;;;;;;;;;;;;;;;5120115;28;19955;-80
2022/05/26 07:31:47;;;;;;;;;;;;;;;;;;5119397;28;19920;-82
2022/05/26 07:34:12;;;;;;;;;;;;;;;;;;5120669;28;19922;-79
2022/05/26 07:42:07;;;;;;;;;;;;;;;;;;5112916;28;19923;-78
2022/05/26 07:44:35;;;;;;;;;;;;;;;;;;5110263;28;19977;-75
2022/05/26 07:47:10;;;;;;;;;;;;;;;;;;5095517;28;19927;-78
2022/05/26 07:49:36;;;;;;;;;;;;;;;;;;5098063;28;20293;-74
2022/05/26 07:52:01;;;;;;;;;;;;;;;;;;5095390;28;19916;-77
2022/05/26 07:54:27;;;;;;;;;;;;;;;;;;5094176;28;19924;-75
2022/05/26 07:56:53;;;;;;;;;;;;;;;;;;5093456;28;20001;-77
2022/05/26 07:59:18;;;;;;;;;;;;;;;;;;5095230;28;19924;-76
2022/05/26 08:01:43;;;;;;;;;;;;;;;;;;5100650;28;20269;-76
2022/05/26 08:04:09;;;;;;;;;;;;;;;;;;5116062;28;20047;-80
2022/05/26 08:06:34;;;;;;;;;;;;;;;;;;5112895;28;20188;-78
2022/05/26 08:09:00;;;;;;;;;;;;;;;;;;5113518;28;19942;-79
2022/05/26 08:11:25;;;;;;;;;;;;;;;;;;5114437;28;20119;-77
2022/05/26 08:13:51;;;;;;;;;;;;;;;;;;5113940;28;20320;-76
2022/05/26 08:16:16;;;;;;;;;;;;;;;;;;5114030;28;19965;-76
2022/05/26 08:18:42;;;;;;;;;;;;;;;;;;5114657;28;20032;-77
2022/05/26 08:21:07;;;;;;;;;;;;;;;;;;5116432;28;19955;-78
2022/05/26 08:23:33;;;;;;;;;;;;;;;;;;5115984;28;20373;-74
2022/05/26 08:25:58;;;;;;;;;;;;;;;;;;5116131;28;19916;-78
2022/05/26 08:28:24;;;;;;;;;;;;;;;;;;5117342;28;19964;-77
2022/05/26 08:30:49;;;;;;;;;;;;;;;;;;5116507;28;19922;-78
2022/05/26 08:33:15;;;;;;;;;;;;;;;;;;5117753;28;20014;-78
2022/05/26 08:35:40;;;;;;;;;;;;;;;;;;5118459;28;19946;-79
2022/05/26 08:38:06;;;;;;;;;;;;;;;;;;5117576;28;20397;-79
2022/05/26 08:40:41;;;;;;;;;;;;;;;;;;5120263;28;19916;-81
2022/05/26 08:43:10;;;;;;;;;;;;;;;;;;5118393;28;19922;-81
2022/05/26 08:45:35;;;;;;;;;;;;;;;;;;5117489;28;20378;-78
2022/05/26 08:48:01;;;;;;;;;;;;;;;;;;5116174;28;19919;-80
2022/05/26 08:50:30;;;;;;;;;;;;;;;;;;5113924;28;19926;-76
2022/05/26 08:53:09;;;;;;;;;;;;;;;;;;5092918;28;20255;-79
2022/05/26 08:55:36;;;;;;;;;;;;;;;;;;5108567;28;20388;-78
2022/05/26 08:58:06;;;;;;;;;;;;;;;;;;5096670;28;20010;-78
2022/05/26 09:00:32;;;;;;;;;;;;;;;;;;5095594;28;20313;-78
2022/05/26 09:02:59;;;;;;;;;;;;;;;;;;5094412;28;20007;-80
2022/05/26 09:05:33;;;;;;;;;;;;;;;;;;5096894;28;19923;-80
2022/05/26 09:13:31;;;;;;;;;;;;;;;;;;5091696;28;19926;-79
2022/05/26 09:16:00;;;;;;;;;;;;;;;;;;5093239;28;19916;-79
2022/05/26 09:18:25;;;;;;;;;;;;;;;;;;5092062;28;19943;-79
2022/05/26 09:20:51;;;;;;;;;;;;;;;;;;5092075;28;19916;-79
2022/05/26 09:23:22;;;;;;;;;;;;;;;;;;5094219;28;19966;-80
2022/05/26 09:26:04;;;;;;;;;;;;;;;;;;5094759;28;19917;-79
2022/05/26 09:28:34;;;;;;;;;;;;;;;;;;5094334;28;19912;-78
2022/05/26 09:31:35;;;;;;;;;;;;;;;;;;5110208;28;19920;-78
2022/05/26 09:34:03;;;;;;;;;;;;;;;;;;5093395;28;20006;-78
2022/05/26 09:36:48;;;;;;;;;;;;;;;;;;5111199;28;19916;-78
2022/05/26 09:39:14;;;;;;;;;;;;;;;;;;5115515;28;20027;-78
2022/05/26 09:41:44;;;;;;;;;;;;;;;;;;5112321;28;20335;-79
2022/05/26 09:44:36;;;;;;;;;;;;;;;;;;5113429;27;19919;-77
2022/05/26 09:47:03;;;;;;;;;;;;;;;;;;5089748;28;20048;-78
2022/05/26 09:49:32;;;;;;;;;;;;;;;;;;5112929;28;19922;-79
2022/05/26 09:52:07;;;;;;;;;;;;;;;;;;5112953;28;19916;-79
2022/05/26 09:54:33;;;;;;;;;;;;;;;;;;5094773;28;19916;-76
2022/05/26 09:57:10;;;;;;;;;;;;;;;;;;5114141;28;20000;-79
2022/05/26 09:59:42;;;;;;;;;;;;;;;;;;5112320;28;19938;-78
2022/05/26 10:02:15;;;;;;;;;;;;;;;;;;5115597;28;19919;-79
2022/05/26 10:04:40;;;;;;;;;;;;;;;;;;5112888;28;19916;-78
2022/05/26 10:07:08;;;;;;;;;;;;;;;;;;5113950;28;19923;-79
2022/05/26 10:09:43;;;;;;;;;;;;;;;;;;5111839;28;19915;-82
2022/05/26 10:12:08;;;;;;;;;;;;;;;;;;5114692;28;19922;-80
2022/05/26 10:14:36;;;;;;;;;;;;;;;;;;5114935;28;19916;-80
2022/05/26 10:17:02;;;;;;;;;;;;;;;;;;5116710;28;20340;-81
2022/05/26 10:19:36;;;;;;;;;;;;;;;;;;5114883;28;20019;-79
2022/05/26 10:22:02;;;;;;;;;;;;;;;;;;5115111;28;19916;-80
2022/05/26 10:24:43;;;;;;;;;;;;;;;;;;5115372;28;19922;-79
2022/05/26 10:27:34;;;;;;;;;;;;;;;;;;5116096;28;19996;-80
2022/05/26 10:30:16;;;;;;;;;;;;;;;;;;5088844;28;19915;-80
2022/05/26 10:32:52;;;;;;;;;;;;;;;;;;5111968;28;19916;-77
2022/05/26 10:35:27;;;;;;;;;;;;;;;;;;5112703;28;20331;-77
2022/05/26 10:38:11;;;;;;;;;;;;;;;;;;5114517;28;20345;-78
2022/05/26 10:40:55;;;;;;;;;;;;;;;;;;5112828;28;19916;-77
2022/05/26 10:43:25;;;;;;;;;;;;;;;;;;5096230;28;19916;-78
2022/05/26 10:45:53;;;;;;;;;;;;;;;;;;5103871;28;19920;-81
2022/05/26 10:48:39;;;;;;;;;;;;;;;;;;5108703;28;19916;-80
2022/05/26 10:51:15;;;;;;;;;;;;;;;;;;5092690;28;19912;-80
2022/05/26 10:53:54;;;;;;;;;;;;;;;;;;5092019;28;19916;-80
2022/05/26 10:56:19;;;;;;;;;;;;;;;;;;5107489;28;19920;-79
2022/05/26 10:58:47;;;;;;;;;;;;;;;;;;5091445;28;19920;-79
2022/05/26 11:01:15;;;;;;;;;;;;;;;;;;5093193;28;19913;-78
2022/05/26 11:03:42;;;;;;;;;;;;;;;;;;5101466;28;19981;-77
2022/05/26 11:06:16;;;;;;;;;;;;;;;;;;5110131;28;19919;-79
2022/05/26 11:08:43;;;;;;;;;;;;;;;;;;5111784;28;19973;-80
2022/05/26 11:11:11;;;;;;;;;;;;;;;;;;5111894;28;19915;-77
2022/05/26 11:13:39;;;;;;;;;;;;;;;;;;5112170;28;19992;-78
2022/05/26 11:17:31;;;;;;;;;;;;;;;;;;5093876;28;20279;-77
2022/05/26 11:19:28;;;;;;;;;;;;;;;;;;5109347;28;19926;-80
2022/05/26 11:21:54;;;;;;;;;;;;;;;;;;5112161;28;20309;-80
2022/05/26 11:24:20;;;;;;;;;;;;;;;;;;5103647;28;19916;-78
2022/05/26 11:26:51;;;;;;;;;;;;;;;;;;5107665;28;20289;-79
2022/05/26 11:29:27;;;;;;;;;;;;;;;;;;5108012;28;20300;-78
2022/05/26 11:38:06;;;;;;;;;;;;;;;;;;5111373;28;19949;-80
2022/05/26 11:40:32;;;;;;;;;;;;;;;;;;5113082;28;19920;-80
2022/05/26 11:42:58;;;;;;;;;;;;;;;;;;5114625;28;19916;-80
2022/05/26 11:45:32;;;;;;;;;;;;;;;;;;5113105;28;20032;-80
2022/05/26 11:47:58;;;;;;;;;;;;;;;;;;5112607;28;19920;-81
2022/05/26 11:50:24;;;;;;;;;;;;;;;;;;5110881;28;19916;-80
2022/05/26 11:52:49;;;;;;;;;;;;;;;;;;5112418;28;19916;-80
2022/05/26 11:55:17;;;;;;;;;;;;;;;;;;5110398;28;20337;-80
2022/05/26 11:57:43;;;;;;;;;;;;;;;;;;5114065;28;19916;-78
2022/05/26 12:00:14;;;;;;;;;;;;;;;;;;5117363;28;19923;-80
2022/05/26 12:02:39;;;;;;;;;;;;;;;;;;5117052;28;19922;-79
2022/05/26 12:05:23;;;;;;;;;;;;;;;;;;5116516;28;20010;-80
2022/05/26 12:07:49;;;;;;;;;;;;;;;;;;5117261;28;19915;-80
2022/05/26 12:10:26;;;;;;;;;;;;;;;;;;5117102;28;19978;-79
2022/05/26 12:13:11;;;;;;;;;;;;;;;;;;5117288;28;20036;-80
2022/05/26 12:15:36;;;;;;;;;;;;;;;;;;5117476;28;20317;-80
2022/05/26 12:18:02;;;;;;;;;;;;;;;;;;5116366;28;19931;-80
2022/05/26 12:20:28;;;;;;;;;;;;;;;;;;5117540;28;19915;-78
2022/05/26 12:22:54;;;;;;;;;;;;;;;;;;5114250;28;20347;-82
2022/05/26 12:25:19;;;;;;;;;;;;;;;;;;5115531;28;19962;-82
2022/05/26 12:27:47;;;;;;;;;;;;;;;;;;5116109;28;19912;-80
2022/05/26 12:30:12;;;;;;;;;;;;;;;;;;5117101;28;19945;-81
2022/05/26 12:32:37;;;;;;;;;;;;;;;;;;5115237;28;19911;-80
2022/05/26 12:35:23;;;;;;;;;;;;;;;;;;5116876;28;19922;-80
2022/05/26 12:38:07;;;;;;;;;;;;;;;;;;5116982;28;19973;-80
2022/05/26 12:40:44;;;;;;;;;;;;;;;;;;5114149;28;19912;-80
2022/05/26 12:43:18;;;;;;;;;;;;;;;;;;5116102;28;19964;-80
2022/05/26 12:45:45;;;;;;;;;;;;;;;;;;5114905;28;20345;-78
2022/05/26 12:48:15;;;;;;;;;;;;;;;;;;5115151;28;19916;-81
2022/05/26 12:50:41;;;;;;;;;;;;;;;;;;5115127;28;19984;-78
2022/05/26 12:53:26;;;;;;;;;;;;;;;;;;5115265;28;20374;-79
2022/05/26 12:55:58;;;;;;;;;;;;;;;;;;5116391;28;19915;-80
2022/05/26 12:58:24;;;;;;;;;;;;;;;;;;5115231;28;20237;-80
2022/05/26 13:00:55;;;;;;;;;;;;;;;;;;5116829;28;19915;-79
2022/05/26 13:03:29;;;;;;;;;;;;;;;;;;5116761;28;20034;-81
2022/05/26 13:06:07;;;;;;;;;;;;;;;;;;5114784;28;19927;-80
2022/05/26 13:08:41;;;;;;;;;;;;;;;;;;5113337;28;20206;-80
2022/05/26 13:11:10;;;;;;;;;;;;;;;;;;5115358;28;19922;-80
2022/05/26 13:13:38;;;;;;;;;;;;;;;;;;5113815;28;19916;-77
2022/05/26 13:16:22;;;;;;;;;;;;;;;;;;5115155;28;19916;-81
2022/05/26 13:18:47;;;;;;;;;;;;;;;;;;5115349;28;20256;-81
2022/05/26 13:21:21;;;;;;;;;;;;;;;;;;5116946;28;19916;-80
2022/05/26 13:23:47;;;;;;;;;;;;;;;;;;5097538;28;19916;-81
2022/05/26 13:26:13;;;;;;;;;;;;;;;;;;5116396;28;20331;-80
2022/05/26 13:28:39;;;;;;;;;;;;;;;;;;5116313;28;19965;-81
2022/05/26 13:33:49;;;;;;;;;;;;;;;;;;5116115;28;19922;-79
2022/05/26 13:36:18;;;;;;;;;;;;;;;;;;5115898;28;19916;-81
2022/05/26 13:38:46;;;;;;;;;;;;;;;;;;5114409;28;19916;-80
2022/05/26 13:41:13;;;;;;;;;;;;;;;;;;5116118;28;19999;-78
2022/05/26 13:43:40;;;;;;;;;;;;;;;;;;5115998;28;19923;-80
2022/05/26 13:46:06;;;;;;;;;;;;;;;;;;5114589;28;19969;-81
2022/05/26 13:48:44;;;;;;;;;;;;;;;;;;5116051;27;19916;-80
2022/05/26 13:51:30;;;;;;;;;;;;;;;;;;5114467;28;19988;-82
2022/05/26 13:54:18;;;;;;;;;;;;;;;;;;5114876;28;19922;-81
2022/05/26 13:56:43;;;;;;;;;;;;;;;;;;5114332;28;19922;-82
2022/05/26 13:59:10;;;;;;;;;;;;;;;;;;5116073;28;19915;-86
2022/05/26 14:01:47;;;;;;;;;;;;;;;;;;5096901;28;19976;-82
2022/05/26 14:04:20;;;;;;;;;;;;;;;;;;5096577;28;19916;-85
2022/05/26 14:06:45;;;;;;;;;;;;;;;;;;5114034;28;19916;-83
2022/05/26 14:09:25;;;;;;;;;;;;;;;;;;5113712;28;19972;-82
2022/05/26 14:12:02;;;;;;;;;;;;;;;;;;5114799;28;19916;-83
2022/05/26 14:14:31;;;;;;;;;;;;;;;;;;5114268;28;19915;-83
2022/05/26 14:16:59;;;;;;;;;;;;;;;;;;5115279;28;20252;-83
2022/05/26 14:19:28;;;;;;;;;;;;;;;;;;5113376;28;19915;-82
2022/05/26 14:21:53;;;;;;;;;;;;;;;;;;5114763;28;19922;-84
2022/05/26 14:24:20;;;;;;;;;;;;;;;;;;5115034;28;19919;-78
2022/05/26 14:27:04;;;;;;;;;;;;;;;;;;5113920;28;20367;-78
2022/05/26 14:29:29;;;;;;;;;;;;;;;;;;5114794;28;19947;-78
2022/05/26 14:32:07;;;;;;;;;;;;;;;;;;5114731;28;19972;-78
2022/05/26 14:34:34;;;;;;;;;;;;;;;;;;5114793;28;19919;-77
2022/05/26 14:37:00;;;;;;;;;;;;;;;;;;5114382;28;20349;-76
2022/05/26 14:39:25;;;;;;;;;;;;;;;;;;5115685;28;19916;-77
2022/05/26 14:41:51;;;;;;;;;;;;;;;;;;5115255;28;19959;-78
2022/05/26 14:44:17;;;;;;;;;;;;;;;;;;5114406;28;20356;-84
2022/05/26 14:46:45;;;;;;;;;;;;;;;;;;5116145;28;19927;-84
2022/05/26 14:49:11;;;;;;;;;;;;;;;;;;5116145;28;19998;-83
2022/05/26 14:51:36;;;;;;;;;;;;;;;;;;5115875;28;19947;-82
2022/05/26 14:56:45;;;;;;;;;;;;;;;;;;5115363;28;19972;-85
2022/05/26 14:59:11;;;;;;;;;;;;;;;;;;5115777;28;19963;-84
2022/05/26 15:01:36;;;;;;;;;;;;;;;;;;5115628;28;19958;-84
2022/05/26 15:04:02;;;;;;;;;;;;;;;;;;5114149;28;19976;-83
2022/05/26 15:06:32;;;;;;;;;;;;;;;;;;5115800;28;20358;-84
2022/05/26 15:08:57;;;;;;;;;;;;;;;;;;5114474;28;20345;-84
2022/05/26 15:11:22;;;;;;;;;;;;;;;;;;5114011;28;19923;-84
2022/05/26 15:13:48;;;;;;;;;;;;;;;;;;5115496;28;20008;-84
2022/05/26 15:16:14;;;;;;;;;;;;;;;;;;5115317;28;20123;-83
2022/05/26 15:18:39;;;;;;;;;;;;;;;;;;5115008;28;19923;-83
2022/05/26 15:21:05;;;;;;;;;;;;;;;;;;5114334;28;19919;-84
2022/05/26 15:23:30;;;;;;;;;;;;;;;;;;5115504;28;19973;-83
2022/05/26 15:26:15;;;;;;;;;;;;;;;;;;5114243;28;20010;-83
2022/05/26 15:28:41;;;;;;;;;;;;;;;;;;5115131;28;19912;-84
2022/05/26 15:31:07;;;;;;;;;;;;;;;;;;5116606;28;19916;-83
2022/05/26 15:33:32;;;;;;;;;;;;;;;;;;5121922;28;19911;-84
2022/05/26 15:35:57;;;;;;;;;;;;;;;;;;5123363;28;19950;-84
2022/05/26 15:38:23;;;;;;;;;;;;;;;;;;5121927;28;19961;-83
2022/05/26 15:40:48;;;;;;;;;;;;;;;;;;5102703;28;20336;-82
2022/05/26 15:43:14;;;;;;;;;;;;;;;;;;5126508;28;19920;-84
2022/05/26 15:45:39;;;;;;;;;;;;;;;;;;5120083;28;19923;-83
2022/05/26 15:48:08;;;;;;;;;;;;;;;;;;5119067;28;19916;-82
2022/05/26 15:50:34;;;;;;;;;;;;;;;;;;5118988;28;20264;-85
2022/05/26 15:53:00;;;;;;;;;;;;;;;;;;5118909;28;19915;-84
2022/05/26 15:55:26;;;;;;;;;;;;;;;;;;5119024;28;19923;-84
2022/05/26 15:57:51;;;;;;;;;;;;;;;;;;5118979;28;19915;-86
2022/05/26 16:00:18;;;;;;;;;;;;;;;;;;5117907;28;19965;-85
2022/05/26 16:02:43;;;;;;;;;;;;;;;;;;5118491;28;19920;-82
2022/05/26 16:05:09;;;;;;;;;;;;;;;;;;5118713;28;19965;-83
2022/05/26 16:07:34;;;;;;;;;;;;;;;;;;5117464;28;19916;-82
2022/05/26 16:09:59;;;;;;;;;;;;;;;;;;5118675;28;19939;-84
2022/05/26 16:12:25;;;;;;;;;;;;;;;;;;5118506;28;20280;-84
2022/05/26 16:14:50;;;;;;;;;;;;;;;;;;5118455;28;20262;-84
2022/05/26 16:17:18;;;;;;;;;;;;;;;;;;5118200;28;20322;-84
2022/05/26 16:19:43;;;;;;;;;;;;;;;;;;5117243;28;19920;-85
2022/05/26 16:22:09;;;;;;;;;;;;;;;;;;5118414;28;20394;-83
2022/05/26 16:24:34;;;;;;;;;;;;;;;;;;5117032;28;19922;-84
2022/05/26 16:27:02;;;;;;;;;;;;;;;;;;5118117;28;19923;-82
2022/05/26 16:29:28;;;;;;;;;;;;;;;;;;5118227;28;19916;-84
2022/05/26 16:31:53;;;;;;;;;;;;;;;;;;5116773;28;20314;-82
2022/05/26 16:34:18;;;;;;;;;;;;;;;;;;5118137;28;20002;-83
2022/05/26 16:36:50;;;;;;;;;;;;;;;;;;5117866;28;19916;-83
2022/05/26 16:39:16;;;;;;;;;;;;;;;;;;5118283;28;19923;-84
2022/05/26 16:41:41;;;;;;;;;;;;;;;;;;5116495;28;19951;-83
2022/05/26 16:44:07;;;;;;;;;;;;;;;;;;5115712;28;19957;-83
2022/05/26 16:46:32;;;;;;;;;;;;;;;;;;5117540;28;19919;-84
2022/05/26 16:48:58;;;;;;;;;;;;;;;;;;5118036;28;19916;-83
2022/05/26 16:51:23;;;;;;;;;;;;;;;;;;5117571;28;20010;-86
2022/05/26 16:53:48;;;;;;;;;;;;;;;;;;5116198;28;20018;-83
2022/05/26 16:56:14;;;;;;;;;;;;;;;;;;5117933;28;19959;-85
2022/05/26 16:58:39;;;;;;;;;;;;;;;;;;5118342;28;20002;-84
2022/05/26 17:01:05;;;;;;;;;;;;;;;;;;5117497;28;19916;-83
2022/05/26 17:03:30;;;;;;;;;;;;;;;;;;5118280;28;19920;-84
2022/05/26 17:05:55;;;;;;;;;;;;;;;;;;5118537;28;19922;-85
2022/05/26 17:08:21;;;;;;;;;;;;;;;;;;5117823;28;19919;-85
2022/05/26 17:10:46;;;;;;;;;;;;;;;;;;5099917;28;20357;-85
2022/05/26 17:21:24;;;;;;;;;;;;;;;;;;5139436;28;19926;-84
2022/05/26 17:23:50;;;;;;;;;;;;;;;;;;5136615;28;19931;-84
2022/05/26 17:26:16;;;;;;;;;;;;;;;;;;5133912;28;19916;-84
2022/05/26 17:28:41;;;;;;;;;;;;;;;;;;5118288;28;19947;-84
2022/05/26 17:31:06;;;;;;;;;;;;;;;;;;5119191;28;19923;-82
2022/05/26 17:33:34;;;;;;;;;;;;;;;;;;5122945;28;20014;-83
2022/05/26 17:35:59;;;;;;;;;;;;;;;;;;5123545;28;19983;-84
2022/05/26 17:38:24;;;;;;;;;;;;;;;;;;5116778;28;19958;-83
2022/05/26 17:40:50;;;;;;;;;;;;;;;;;;5120714;28;19923;-83
2022/05/26 17:43:15;;;;;;;;;;;;;;;;;;5117488;28;19916;-83